New Harbor, ME (Heathkit)

43° 52' 34"N, 69° 29' 40"W, Elevation 65 ft.
Eastern Time

Hourly observations for the last 72 hours

Date Time Temperature (°F) Humi-
dity

(%)
Wind
(mph)
Pressure Rain (in)
Air Dew 6 Hour 1 Hr 3 Hr 6 Hr Day
Alt
(in)
Sea
Level

(mb)
Max Min
22 13:00 22 16 31 18 77 ESE 7 G 12 30.25 1024.4 0.00
22 12:00 23 17 78 SE 5 G 17 30.25 1024.4 0.00
22 11:00 24 8 50 ESE 11 G 18 30.27 1025.1 0.00
22 10:00 26 10 50 ESE 9 G 20 30.27 1025.1 0.00
22 09:00 28 12 50 ESE 9 G 17 30.23 1023.7 0.00
22 08:00 30 15 53 E 7 G 17 30.22 1023.4 0.00
22 07:00 31 16 36 27 54 ESE 10 G 19 30.18 1022.0 0.00
22 06:00 31 28 88 E 7 G 18 30.16 1021.4 0.00
22 05:00 32 16 52 E 9 G 19 30.14 1020.7 0.00
22 04:00 32 16 51 E 9 G 17 30.12 1020.0 0.00
22 03:00 33 19 55 E 7 G 14 30.12 1020.0 0.00
22 02:00 34 20 56 E 6 G 11 30.10 1019.3 0.00
22 01:00 36 21 36 31 55 E 5 G 9 30.08 1018.7 0.00
22 00:00 36 23 60 ESE 3 G 8 30.07 1018.3 0.09
21 23:00 34 28 77 SE 3 G 4 30.06 1018.0 0.09
21 22:00 34 21 59 ESE 2 G 2 30.05 1017.6 0.09
21 21:00 35 24 63 WSW 1 G 2 30.05 1017.6 0.09
21 20:00 35 20 53 S 0 G 2 30.05 1017.6 0.09
21 19:00 35 23 43 31 60 SSE 0 G 1 30.04 1017.3 0.03 0.09
21 18:00 36 30 79 S 1 G 2 30.03 1017.0 0.09
21 17:00 38 32 79 S 1 G 4 30.01 1016.3 0.09
21 16:00 41 27 58 SW 1 G 6 29.97 1014.9 0.01 0.03 0.09
21 15:00 42 29 59 SSW 1 G 9 29.95 1014.3 0.01 0.08
21 14:00 42 28 58 SSW 2 G 8 29.93 1013.6 0.01 0.07
21 13:00 42 29 43 33 59 SSW 4 G 9 29.93 1013.6 0.01 0.04 0.05 0.06
21 12:00 42 36 79 SSW 2 G 8 29.93 1013.6 0.02 0.05
21 11:00 43 37 78 SW 3 G 10 29.94 1013.9 0.01 0.03
21 10:00 41 35 79 SSW 2 G 3 29.95 1014.3 0.01 0.01 0.02
21 09:00 36 30 79 SE 0 G 1 29.93 1013.6 0.01
21 08:00 36 30 79 WSW 2 G 5 29.87 1011.5 0.01
21 07:00 39 33 39 31 78 S 2 G 9 29.88 1011.9 0.01
21 06:00 39 33 79 SW 2 G 8 29.85 1010.9 0.01
21 05:00 37 31 79 S 2 G 7 29.83 1010.2 0.01
21 04:00 37 31 79 SSW 2 G 9 29.80 1009.2 0.01
21 03:00 35 23 61 SW 3 G 8 29.77 1008.2 0.01
21 02:00 34 28 79 SW 4 G 9 29.76 1007.8 0.01
21 01:00 36 30 41 34 79 WSW 2 G 5 29.74 1007.1 0.01 0.01 0.01 0.01
21 00:00 39 29 68 SW 3 G 7 29.73 1006.8 0.14
20 23:00 38 27 63 SW 4 G 7 29.70 1005.8 0.14
20 22:00 41 35 79 SW 8 G 15 29.68 1005.1 0.14
20 21:00 40 27 59 SW 5 G 10 29.67 1004.8 0.14
20 20:00 37 21 52 SSW 3 G 9 29.65 1004.1 0.14
20 19:00 36 21 41 29 55 SW 4 G 10 29.63 1003.4 0.01 0.08 0.14
20 18:00 32 18 56 S 2 G 5 29.59 1002.1 0.01 0.14
20 17:00 35 29 79 WSW 2 G 5 29.54 1000.4 0.13
20 16:00 39 24 54 S 1 G 4 29.50 999.0 0.04 0.07 0.13
20 15:00 41 27 58 SSW 3 G 8 29.46 997.7 0.09
20 14:00 40 34 78 SSW 5 G 12 29.42 996.3 0.03 0.09
20 13:00 41 34 41 32 77 SW 5 G 12 29.40 995.6 0.03 0.06 0.06 0.06
20 12:00 37 30 76 SW 5 G 11 29.41 996.0 0.01 0.03
20 11:00 38 31 77 SW 5 G 20 29.42 996.3 0.02 0.02
20 10:00 37 31 78 SW 6 G 14 29.41 996.0 0.00
20 09:00 37 31 79 SW 9 G 19 29.40 995.6 0.00
20 08:00 36 23 58 SSW 7 G 15 29.41 996.0 0.00
20 07:00 35 28 35 27 76 SSW 6 G 17 29.45 997.3 0.00
20 06:00 34 28 78 SSW 5 G 23 29.46 997.7 0.00
20 05:00 34 22 61 SSW 4 G 20 29.50 999.0 0.00
20 04:00 35 23 62 SW 5 G 11 29.56 1001.0 0.00
20 03:00 33 21 60 SW 5 G 12 29.60 1002.4 0.00
20 02:00 32 20 60 SW 6 G 14 29.63 1003.4 0.00
20 01:00 30 24 31 27 78 SSW 3 G 6 29.65 1004.1 0.00
20 00:00 31 25 78 SSW 2 G 7 29.67 1004.8 0.05
19 23:00 31 25 77 SW 4 G 9 29.71 1006.1 0.05
19 22:00 31 25 79 SW 2 G 4 29.71 1006.1 0.05
19 21:00 31 24 76 SSW 2 G 7 29.74 1007.1 0.05
19 20:00 31 25 78 SSW 2 G 4 29.74 1007.1 0.05
19 19:00 31 25 35 27 78 WSW 2 G 3 29.74 1007.1 0.04 0.05
19 18:00 31 25 78 WSW 2 G 3 29.75 1007.5 0.05
19 17:00 31 25 78 SW 2 G 3 29.77 1008.2 0.05
19 16:00 32 18 55 S 0 G 2 29.76 1007.8 0.04 0.05
19 15:00 32 22 65 SW 2 G 6 29.76 1007.8 0.01 0.05
19 14:00 33 19 55 SW 4 G 8 29.75 1007.5 0.03 0.04

Data generated by WxSolution Version 1.9.0.8, Build 2017.07.06.